ENST/SSJ METAR and TAF weather

Enter ICAO airport designator
Station Type Date Time Source
ENST METAR 2020/08/05 19:20 UTC NOAA

ENST 051920Z 17006KT 9999 FEW045TCU FEW055 18/09 Q1005 RMK WIND 300FT 18007KT


Station Type Date Time Source
ENST Decoded METAR 2020/08/05 19:20 UTC NOAA

Sandnessjoen / Stokka, Norway (ENST) 65-58N 012-28E 17M
Aug 05, 2020 - 03:20 PM EDT / 2020.08.05 1920 UTC
Wind: from the S (170 degrees) at 7 MPH (6 KT):0
Visibility: greater than 7 mile(s):0
Sky conditions: mostly clear
Weather: Towering cumulus clouds observed
Temperature: 64 F (18 C)
Dew Point: 48 F (9 C)
Relative Humidity: 55%
Pressure (altimeter): 29.68 in. Hg (1005 hPa)
ob: ENST 051920Z 17006KT 9999 FEW045TCU FEW055 18/09 Q1005 RMK WIND 300FT 18007KT
cycle: 19

Station Type Date Time Source
ENST TAF UTC NOAA

Error!

Example: see airport list